Time;durP1;ratioP1;P1;durP2;ratioP2;P2;SDS_P1;SDS_P2;PMS_P1;PMS_P2;Temp;Humidity;BMP_temperature;BMP_pressure;BME280_temperature;BME280_humidity;BME280_pressure;Samples;Min_cycle;Max_cycle;Signal;HPM_P1;HPM_P2
2023/02/27 00:00:17;;;;;;;4.65;3.30;;;0.20;99.90;;;;;;5068334;28;20242;-83
2023/02/27 00:02:48;;;;;;;3.40;3.05;;;0.20;99.90;;;;;;5070322;28;20194;-83
2023/02/27 00:05:15;;;;;;;4.22;3.42;;;0.10;99.90;;;;;;5065472;28;20226;-83
2023/02/27 00:07:42;;;;;;;3.15;2.90;;;0.10;99.90;;;;;;5061698;28;20207;-83
2023/02/27 00:10:12;;;;;;;5.28;2.95;;;0.10;99.90;;;;;;5060136;28;20258;-85
2023/02/27 00:12:39;;;;;;;5.30;2.70;;;-0.10;1.00;;;;;;5060908;28;20264;-84
2023/02/27 00:15:08;;;;;;;4.28;2.90;;;0.40;16.80;;;;;;5060859;28;20206;-84
2023/02/27 00:17:36;;;;;;;3.33;2.70;;;0.30;1.00;;;;;;5060980;28;20243;-82
2023/02/27 00:20:04;;;;;;;3.83;2.88;;;0.40;1.00;;;;;;5060107;28;20313;-84
2023/02/27 00:22:31;;;;;;;4.28;3.10;;;0.20;95.60;;;;;;5060578;28;20203;-83
2023/02/27 00:24:57;;;;;;;4.80;2.83;;;3.10;1.00;;;;;;5060152;28;20295;-84
2023/02/27 00:27:25;;;;;;;4.97;3.17;;;0.10;99.90;;;;;;5059664;28;20199;-84
2023/02/27 00:29:52;;;;;;;3.70;3.17;;;0.00;1.00;;;;;;5060003;28;20215;-84
2023/02/27 00:32:18;;;;;;;3.38;2.65;;;0.00;99.90;;;;;;5060211;28;20208;-84
2023/02/27 00:34:47;;;;;;;3.45;3.15;;;0.10;1.00;;;;;;5060130;28;20278;-83
2023/02/27 00:37:13;;;;;;;4.05;3.17;;;-0.10;1.00;;;;;;5060944;28;20224;-84
2023/02/27 00:39:40;;;;;;;4.28;2.75;;;-0.30;1.00;;;;;;5064007;28;20207;-83
2023/02/27 00:42:07;;;;;;;4.88;3.47;;;0.00;1.00;;;;;;5063221;28;20289;-83
2023/02/27 00:44:34;;;;;;;2.22;2.13;;;-0.10;1.00;;;;;;5066493;28;20275;-82
2023/02/27 00:47:01;;;;;;;3.50;2.40;;;-0.20;1.00;;;;;;5070604;28;20725;-84
2023/02/27 00:49:28;;;;;;;5.57;2.30;;;-0.20;1.00;;;;;;5071845;28;20267;-82
2023/02/27 00:51:56;;;;;;;3.42;2.20;;;-0.20;99.90;;;;;;5067164;28;20315;-84
2023/02/27 00:54:23;;;;;;;3.28;2.28;;;-0.10;1.00;;;;;;5062936;28;20213;-83
2023/02/27 00:56:50;;;;;;;3.25;2.90;;;-0.20;99.90;;;;;;5065668;28;20219;-83
2023/02/27 00:59:17;;;;;;;3.25;1.92;;;-0.10;1.00;;;;;;5065208;28;20235;-83
2023/02/27 01:01:44;;;;;;;2.80;2.50;;;0.00;1.00;;;;;;5064237;28;20222;-83
2023/02/27 01:04:11;;;;;;;2.78;2.30;;;-0.20;95.10;;;;;;5066608;28;20195;-82
2023/02/27 01:06:38;;;;;;;4.70;2.70;;;-0.10;1.00;;;;;;5070908;28;20290;-84
2023/02/27 01:09:06;;;;;;;4.65;3.00;;;-0.30;99.90;;;;;;5066319;28;20209;-82
2023/02/27 01:11:33;;;;;;;3.60;2.78;;;-0.20;19.80;;;;;;5078537;28;20246;-83
2023/02/27 01:14:00;;;;;;;2.65;2.45;;;-0.20;1.00;;;;;;5080073;28;20191;-81
2023/02/27 01:16:27;;;;;;;3.50;2.85;;;-0.10;76.20;;;;;;5076364;28;20279;-85
2023/02/27 01:18:54;;;;;;;2.08;1.88;;;0.10;99.90;;;;;;5072934;28;20267;-84
2023/02/27 01:21:21;;;;;;;5.55;3.20;;;-0.30;99.90;;;;;;5064051;28;20321;-83
2023/02/27 01:23:51;;;;;;;3.58;3.10;;;-0.20;99.90;;;;;;5063998;28;20207;-85
2023/02/27 01:26:19;;;;;;;5.75;3.92;;;-0.20;99.90;;;;;;5070389;28;20199;-83
2023/02/27 01:28:46;;;;;;;5.75;4.80;;;-0.20;56.20;;;;;;5064517;28;20241;-83
2023/02/27 01:31:13;;;;;;;8.18;5.03;;;0.00;99.90;;;;;;5063075;28;20234;-83
2023/02/27 01:33:40;;;;;;;3.30;3.05;;;0.10;99.90;;;;;;5063475;28;20203;-85
2023/02/27 01:36:08;;;;;;;3.95;3.30;;;-0.40;26.00;;;;;;5063008;28;20258;-84
2023/02/27 01:38:35;;;;;;;2.72;2.47;;;-0.10;1.00;;;;;;5063155;28;20212;-83
2023/02/27 01:41:03;;;;;;;3.65;3.20;;;-0.10;1.00;;;;;;5063066;28;20229;-84
2023/02/27 01:43:31;;;;;;;5.75;4.00;;;-0.50;99.90;;;;;;5062673;28;20209;-83
2023/02/27 01:45:59;;;;;;;4.30;3.13;;;-0.30;99.90;;;;;;5062555;28;20256;-83
2023/02/27 01:48:29;;;;;;;2.80;2.60;;;-0.30;1.00;;;;;;5063463;28;20564;-83
2023/02/27 01:50:59;;;;;;;3.80;3.15;;;0.00;1.00;;;;;;5066851;28;20310;-85
2023/02/27 01:53:28;;;;;;;2.10;2.00;;;-0.40;1.00;;;;;;5066707;28;20187;-81
2023/02/27 01:56:00;;;;;;;8.55;3.53;;;-0.20;1.00;;;;;;5068808;28;20324;-83
2023/02/27 01:58:27;;;;;;;2.72;2.55;;;-0.40;1.00;;;;;;5064788;28;20197;-83
2023/02/27 02:00:55;;;;;;;3.30;2.90;;;-0.30;1.00;;;;;;5061441;28;20230;-84
2023/02/27 02:03:28;;;;;;;4.82;4.00;;;-0.70;1.00;;;;;;5061714;28;20286;-83
2023/02/27 02:05:57;;;;;;;8.10;5.15;;;-0.40;1.00;;;;;;5061187;28;20254;-83
2023/02/27 02:08:27;;;;;;;9.02;5.85;;;-0.50;1.00;;;;;;5061139;28;20203;-84
2023/02/27 02:10:56;;;;;;;9.32;5.30;;;-0.30;1.00;;;;;;5087068;22;20229;-82
2023/02/27 02:13:23;;;;;;;7.95;6.43;;;-0.40;99.90;;;;;;5080086;28;20187;-80
2023/02/27 02:16:01;;;;;;;6.32;5.57;;;-0.40;99.90;;;;;;5080823;28;20233;-80
2023/02/27 02:18:40;;;;;;;8.55;5.70;;;-0.40;1.00;;;;;;5075608;28;20193;-81
2023/02/27 02:21:29;;;;;;;8.23;5.30;;;-0.50;1.00;;;;;;5061931;28;20254;-81
2023/02/27 02:24:41;;;;;;;6.82;4.15;;;-0.40;1.00;;;;;;5062011;28;20188;-82
2023/02/27 02:27:20;;;;;;;5.05;4.30;;;-0.40;1.00;;;;;;5061966;28;20266;-82
2023/02/27 02:30:24;;;;;;;6.55;4.50;;;-0.50;1.00;;;;;;5061382;28;20190;-81
2023/02/27 02:33:33;;;;;;;8.73;5.45;;;-0.50;1.00;;;;;;5062325;28;20668;-82
2023/02/27 02:36:39;;;;;;;6.65;4.65;;;-0.40;1.00;;;;;;5027693;28;20230;-82
2023/02/27 02:39:40;;;;;;;8.77;5.55;;;-0.50;1.00;;;;;;5074252;28;20196;-82
2023/02/27 02:42:18;;;;;;;4.45;4.05;;;-0.60;1.00;;;;;;5071639;28;20686;-82
2023/02/27 02:44:58;;;;;;;4.07;3.38;;;-0.70;1.00;;;;;;5065815;28;20192;-82
2023/02/27 02:47:33;;;;;;;3.30;3.08;;;-0.60;99.90;;;;;;5063133;28;20211;-82
2023/02/27 02:50:06;;;;;;;6.18;3.22;;;-0.60;99.90;;;;;;5063604;28;20247;-82
2023/02/27 02:52:43;;;;;;;4.90;3.65;;;-0.60;45.70;;;;;;5063846;28;20297;-82
2023/02/27 02:55:18;;;;;;;4.40;4.00;;;-0.60;1.00;;;;;;5063638;28;20188;-82
2023/02/27 02:57:51;;;;;;;3.75;3.45;;;-0.60;1.00;;;;;;5063323;28;20299;-82
2023/02/27 03:00:22;;;;;;;4.95;3.60;;;0.10;1.00;;;;;;5063086;28;20310;-82
2023/02/27 03:02:53;;;;;;;4.72;3.35;;;-0.50;1.00;;;;;;5062806;28;20196;-82
2023/02/27 03:05:25;;;;;;;4.82;3.30;;;-0.40;75.50;;;;;;5070677;28;20255;-82
2023/02/27 03:07:57;;;;;;;6.72;3.83;;;-0.60;1.00;;;;;;5070313;28;20191;-82
2023/02/27 03:10:30;;;;;;;3.80;3.00;;;-0.50;1.00;;;;;;5068437;28;20302;-82
2023/02/27 03:13:02;;;;;;;4.13;3.75;;;-0.50;1.00;;;;;;5066926;28;20271;-82
2023/02/27 03:15:34;;;;;;;4.38;3.97;;;-0.50;1.00;;;;;;5065538;28;20275;-82
2023/02/27 03:18:07;;;;;;;4.38;4.05;;;-0.50;99.90;;;;;;5064238;28;20272;-82
2023/02/27 03:20:39;;;;;;;10.40;4.25;;;-0.30;99.90;;;;;;5064862;28;20223;-82
2023/02/27 03:23:12;;;;;;;4.30;4.00;;;-0.60;1.00;;;;;;5063835;28;20190;-82
2023/02/27 03:25:45;;;;;;;4.50;4.10;;;-0.50;1.00;;;;;;5063549;28;20287;-82
2023/02/27 03:28:15;;;;;;;3.13;2.75;;;-0.50;1.00;;;;;;5063506;28;20185;-82
2023/02/27 03:30:47;;;;;;;3.28;2.90;;;-0.50;1.00;;;;;;5062745;28;20340;-82
2023/02/27 03:33:21;;;;;;;2.65;2.45;;;-0.60;1.00;;;;;;5062130;28;20192;-83
2023/02/27 03:35:53;;;;;;;3.88;3.10;;;-0.50;1.00;;;;;;5068120;28;20262;-81
2023/02/27 03:38:27;;;;;;;3.65;3.35;;;-0.60;1.00;;;;;;5073680;28;20275;-82
2023/02/27 03:41:06;;;;;;;2.88;2.67;;;-0.60;1.00;;;;;;5077348;28;20223;-82
2023/02/27 03:43:38;;;;;;;2.78;2.58;;;-0.50;99.90;;;;;;5068799;28;20252;-82
2023/02/27 03:46:10;;;;;;;3.08;2.63;;;-0.60;1.00;;;;;;5064815;28;20191;-81
2023/02/27 03:48:43;;;;;;;5.75;2.45;;;-0.60;99.90;;;;;;5064072;28;20183;-82
2023/02/27 03:51:10;;;;;;;3.08;2.22;;;-0.40;99.90;;;;;;5062237;28;20223;-82
2023/02/27 03:53:41;;;;;;;2.97;2.78;;;-0.60;99.90;;;;;;5061505;28;20211;-82
2023/02/27 03:56:13;;;;;;;2.92;2.63;;;-0.60;99.90;;;;;;5062415;28;20198;-82
2023/02/27 03:58:40;;;;;;;3.03;2.90;;;-0.50;99.90;;;;;;5061360;28;20242;-82
2023/02/27 04:01:07;;;;;;;3.00;2.33;;;-0.60;87.30;;;;;;5062995;28;20223;-81
2023/02/27 04:03:41;;;;;;;3.25;2.95;;;-0.60;99.90;;;;;;5061864;28;20204;-82
2023/02/27 04:08:56;;;;;;;2.72;2.50;;;-0.60;1.00;;;;;;5061167;28;20199;-82
2023/02/27 04:11:41;;;;;;;5.43;2.80;;;-0.70;99.90;;;;;;5062283;28;20238;-81
2023/02/27 04:14:24;;;;;;;2.90;2.60;;;-0.70;99.90;;;;;;5062523;28;20187;-82
2023/02/27 04:17:14;;;;;;;2.35;2.15;;;-0.70;1.00;;;;;;5074986;28;20300;-81
2023/02/27 04:20:09;;;;;;;3.15;2.85;;;-0.70;99.90;;;;;;5073572;28;20231;-81
2023/02/27 04:22:39;;;;;;;6.15;2.70;;;-0.70;1.00;;;;;;5073977;28;20222;-82
2023/02/27 04:25:24;;;;;;;2.30;2.10;;;-0.70;1.00;;;;;;5066615;28;20211;-82
2023/02/27 04:27:57;;;;;;;4.00;2.42;;;-0.80;1.00;;;;;;5064744;28;20191;-82
2023/02/27 04:30:29;;;;;;;3.55;2.60;;;-0.80;1.00;;;;;;5066471;28;20253;-82
2023/02/27 04:33:03;;;;;;;3.22;2.72;;;-0.80;1.00;;;;;;5068451;28;20282;-82
2023/02/27 04:35:35;;;;;;;2.53;2.42;;;-0.50;1.00;;;;;;5068548;28;20276;-82
2023/02/27 04:38:06;;;;;;;3.63;2.55;;;-0.70;1.00;;;;;;5067412;28;20203;-82
2023/02/27 04:40:36;;;;;;;3.08;2.88;;;-0.70;99.90;;;;;;5069649;28;20233;-83
2023/02/27 04:43:07;;;;;;;3.50;3.03;;;-0.70;99.90;;;;;;5068833;28;20222;-82
2023/02/27 04:45:37;;;;;;;2.53;2.30;;;-0.60;99.90;;;;;;5077172;28;20214;-82
2023/02/27 04:48:09;;;;;;;4.35;2.72;;;-0.70;99.90;;;;;;5078770;28;20194;-82
2023/02/27 04:50:40;;;;;;;4.60;3.10;;;-0.80;1.00;;;;;;5078858;28;20246;-81
2023/02/27 04:53:13;;;;;;;2.70;2.50;;;-0.80;1.00;;;;;;5076144;28;20187;-81
2023/02/27 04:55:44;;;;;;;3.30;2.70;;;-0.80;1.00;;;;;;5068301;28;20291;-82
2023/02/27 04:58:17;;;;;;;2.75;1.92;;;-0.80;1.00;;;;;;5065798;28;20208;-82
2023/02/27 05:00:49;;;;;;;2.90;2.70;;;-0.70;1.00;;;;;;5061893;28;20227;-82
2023/02/27 05:03:19;;;;;;;9.00;4.10;;;-0.80;1.00;;;;;;5062869;28;20191;-81
2023/02/27 05:05:49;;;;;;;3.95;2.90;;;-0.80;1.00;;;;;;5062873;28;20273;-81
2023/02/27 05:08:21;;;;;;;4.50;3.83;;;-0.80;1.00;;;;;;5059534;28;20278;-82
2023/02/27 05:10:53;;;;;;;5.30;3.60;;;-0.80;1.00;;;;;;5060886;28;20234;-82
2023/02/27 05:13:26;;;;;;;5.00;3.67;;;-0.80;1.00;;;;;;5060599;28;20733;-83
2023/02/27 05:15:58;;;;;;;2.85;2.65;;;-0.70;58.60;;;;;;5062344;28;20187;-83
2023/02/27 05:18:26;;;;;;;3.30;2.65;;;-0.70;99.90;;;;;;5063387;28;20577;-82
2023/02/27 05:21:01;;;;;;;4.15;3.42;;;-0.70;99.90;;;;;;5063562;28;20222;-82
2023/02/27 05:23:36;;;;;;;3.03;2.65;;;-0.60;99.90;;;;;;5064491;28;20188;-83
2023/02/27 05:26:12;;;;;;;5.20;3.10;;;-0.70;99.90;;;;;;5064121;28;20444;-82
2023/02/27 05:28:50;;;;;;;2.70;2.50;;;-0.70;26.20;;;;;;5066721;28;20237;-83
2023/02/27 05:31:26;;;;;;;5.05;3.50;;;-0.70;99.90;;;;;;5066753;28;20223;-82
2023/02/27 05:33:59;;;;;;;5.15;3.40;;;-0.70;1.00;;;;;;5066422;28;20191;-82
2023/02/27 05:36:33;;;;;;;4.25;3.50;;;-0.80;24.80;;;;;;5066048;28;20226;-83
2023/02/27 05:39:04;;;;;;;4.57;3.50;;;-0.80;15.40;;;;;;5065309;28;20217;-83
2023/02/27 05:41:36;;;;;;;5.25;3.45;;;-0.90;99.90;;;;;;5064957;28;20231;-83
2023/02/27 05:44:10;;;;;;;4.05;3.75;;;-0.70;99.90;;;;;;5065562;28;20252;-83
2023/02/27 05:46:42;;;;;;;7.82;4.25;;;-1.30;99.90;;;;;;5065991;28;20278;-83
2023/02/27 05:49:14;;;;;;;3.60;3.22;;;-1.10;1.00;;;;;;5061852;28;20179;-83
2023/02/27 05:51:46;;;;;;;4.78;3.53;;;-1.20;99.90;;;;;;5063100;28;20266;-83
2023/02/27 05:54:19;;;;;;;6.63;3.72;;;-1.00;1.00;;;;;;5064670;28;20226;-83
2023/02/27 05:56:49;;;;;;;7.57;4.05;;;-1.30;1.00;;;;;;5065790;28;20196;-82
2023/02/27 05:59:23;;;;;;;4.53;3.50;;;-1.20;1.00;;;;;;5062090;28;20207;-82
2023/02/27 06:01:50;;;;;;;3.40;3.10;;;-1.20;99.90;;;;;;5062055;28;20234;-81
2023/02/27 06:04:17;;;;;;;3.95;3.33;;;-1.20;99.90;;;;;;5061401;28;20234;-81
2023/02/27 06:06:44;;;;;;;3.60;3.10;;;-1.20;99.90;;;;;;5061318;28;20636;-82
2023/02/27 06:09:11;;;;;;;5.75;3.40;;;-1.20;1.00;;;;;;5062394;28;20278;-82
2023/02/27 06:11:38;;;;;;;5.70;3.25;;;-1.20;1.00;;;;;;5065985;28;20298;-82
2023/02/27 06:14:05;;;;;;;6.50;4.18;;;-1.20;1.00;;;;;;5073932;28;20305;-82
2023/02/27 06:16:36;;;;;;;6.32;4.57;;;-1.20;1.00;;;;;;5073638;28;20199;-81
2023/02/27 06:19:03;;;;;;;3.65;3.35;;;-1.40;1.00;;;;;;5074852;28;20226;-82
2023/02/27 06:21:30;;;;;;;5.22;4.20;;;-1.10;1.00;;;;;;5078551;28;20283;-82
2023/02/27 06:23:57;;;;;;;5.75;3.60;;;-1.10;1.00;;;;;;5079385;28;20194;-82
2023/02/27 06:26:24;;;;;;;7.80;3.80;;;-1.10;1.00;;;;;;5079408;28;20183;-82
2023/02/27 06:28:51;;;;;;;4.88;4.20;;;-1.10;1.00;;;;;;5079783;28;20259;-82
2023/02/27 06:31:18;;;;;;;14.27;5.15;;;-1.10;1.00;;;;;;5079449;28;20207;-82
2023/02/27 06:33:46;;;;;;;5.68;4.57;;;-0.80;1.00;;;;;;5079419;28;20194;-82
2023/02/27 06:36:13;;;;;;;4.30;3.22;;;-0.90;99.90;;;;;;5079602;28;20187;-82
2023/02/27 06:38:40;;;;;;;5.25;4.13;;;-0.80;99.90;;;;;;5080168;28;20286;-82
2023/02/27 06:41:07;;;;;;;5.10;4.60;;;-0.80;99.90;;;;;;5080267;28;20223;-81
2023/02/27 06:43:35;;;;;;;3.70;3.40;;;-0.70;1.00;;;;;;5080179;28;20189;-82
2023/02/27 06:46:03;;;;;;;8.45;4.22;;;-0.80;1.00;;;;;;5078686;28;20198;-82
2023/02/27 06:48:30;;;;;;;4.55;3.78;;;-0.70;99.90;;;;;;5074374;28;20211;-82
2023/02/27 06:50:58;;;;;;;5.68;3.80;;;-0.70;1.00;;;;;;5069748;28;20287;-82
2023/02/27 06:53:25;;;;;;;7.40;5.03;;;-0.50;1.00;;;;;;5063582;28;20218;-82
2023/02/27 06:55:52;;;;;;;3.80;3.20;;;-0.30;1.00;;;;;;5062920;28;20217;-82
2023/02/27 06:58:19;;;;;;;4.25;3.83;;;-0.20;99.90;;;;;;5061683;28;20233;-83
2023/02/27 07:00:46;;;;;;;4.05;3.65;;;-0.20;99.90;;;;;;5061695;28;20310;-83
2023/02/27 07:03:13;;;;;;;6.45;4.20;;;-0.10;99.90;;;;;;5066459;28;20239;-83
2023/02/27 07:05:41;;;;;;;4.40;3.67;;;-0.10;99.90;;;;;;5073343;28;20237;-83
2023/02/27 07:08:10;;;;;;;4.85;4.20;;;0.00;99.90;;;;;;5073922;28;20207;-83
2023/02/27 07:10:37;;;;;;;6.93;3.90;;;-0.10;99.90;;;;;;5063577;28;20609;-82
2023/02/27 07:13:04;;;;;;;5.82;4.05;;;0.00;99.90;;;;;;5063655;28;20191;-82
2023/02/27 07:15:31;;;;;;;5.43;3.60;;;0.20;99.90;;;;;;5061550;28;20203;-82
2023/02/27 07:17:58;;;;;;;8.00;3.70;;;0.20;99.90;;;;;;5060287;28;20313;-82
2023/02/27 07:20:25;;;;;;;6.45;4.15;;;0.00;1.00;;;;;;5060783;28;20229;-83
2023/02/27 07:22:51;;;;;;;6.00;3.60;;;0.10;99.90;;;;;;5060275;28;20225;-83
2023/02/27 07:25:20;;;;;;;6.15;3.92;;;0.10;99.90;;;;;;5059643;28;20729;-83
2023/02/27 07:27:48;;;;;;;5.57;4.10;;;0.10;99.90;;;;;;5060738;28;20290;-82
2023/02/27 07:30:16;;;;;;;6.38;4.15;;;0.20;1.00;;;;;;5059398;28;20213;-82
2023/02/27 07:32:43;;;;;;;4.70;3.50;;;0.20;99.90;;;;;;5059888;28;20210;-82
2023/02/27 07:35:10;;;;;;;6.18;4.57;;;0.10;1.00;;;;;;5059908;28;20206;-82
2023/02/27 07:37:38;;;;;;;9.65;4.60;;;0.20;1.00;;;;;;5059929;28;20209;-82
2023/02/27 07:40:06;;;;;;;5.30;4.47;;;0.30;1.00;;;;;;5059382;28;20210;-82
2023/02/27 07:42:35;;;;;;;3.50;3.17;;;0.30;99.90;;;;;;5059217;28;20291;-83
2023/02/27 07:45:01;;;;;;;5.00;4.18;;;0.20;1.00;;;;;;5060426;28;20207;-83
2023/02/27 07:47:29;;;;;;;7.70;3.70;;;0.40;1.00;;;;;;5060022;28;20208;-82
2023/02/27 07:49:56;;;;;;;3.78;3.47;;;0.40;99.90;;;;;;5059615;28;20225;-82
2023/02/27 07:52:23;;;;;;;4.85;3.70;;;;;;;;;;5059207;28;20199;-82
2023/02/27 07:54:50;;;;;;;3.45;3.15;;;0.10;1.00;;;;;;5058917;28;20217;-82
2023/02/27 07:57:17;;;;;;;8.15;7.50;;;0.60;1.00;;;;;;5059361;28;20271;-82
2023/02/27 07:59:45;;;;;;;4.72;3.60;;;0.60;99.90;;;;;;5059013;28;20223;-82
2023/02/27 08:02:12;;;;;;;8.45;4.40;;;0.60;99.90;;;;;;5061473;28;20253;-82
2023/02/27 08:04:39;;;;;;;7.55;4.15;;;0.70;99.90;;;;;;5062379;28;20605;-82
2023/02/27 08:07:06;;;;;;;7.00;3.35;;;0.80;54.00;;;;;;5064508;28;20270;-82
2023/02/27 08:09:32;;;;;;;6.03;4.55;;;0.90;1.00;;;;;;5068017;28;20212;-82
2023/02/27 08:12:01;;;;;;;6.43;4.25;;;0.70;1.00;;;;;;5067222;28;20253;-82
2023/02/27 08:14:28;;;;;;;10.07;5.50;;;0.90;99.90;;;;;;5067074;28;20266;-82
2023/02/27 08:16:56;;;;;;;5.28;3.53;;;1.00;79.30;;;;;;5069446;28;20199;-82
2023/02/27 08:19:23;;;;;;;4.40;4.00;;;1.10;1.00;;;;;;5063637;28;20251;-83
2023/02/27 08:21:50;;;;;;;5.40;3.80;;;1.20;1.00;;;;;;5062050;28;20306;-83
2023/02/27 08:24:17;;;;;;;4.88;3.70;;;1.30;1.00;;;;;;5063297;28;20234;-83
2023/02/27 08:26:44;;;;;;;6.15;4.93;;;0.90;99.90;;;;;;5064330;28;20269;-82
2023/02/27 08:29:10;;;;;;;7.60;5.18;;;0.90;1.00;;;;;;5066017;28;20270;-82
2023/02/27 08:31:37;;;;;;;5.43;3.80;;;1.10;1.00;;;;;;5067628;28;20291;-83
2023/02/27 08:34:06;;;;;;;7.22;5.35;;;1.20;99.90;;;;;;5067592;28;20203;-82
2023/02/27 08:36:33;;;;;;;6.85;5.90;;;1.40;99.90;;;;;;5068306;28;20270;-82
2023/02/27 08:38:59;;;;;;;6.05;4.05;;;1.30;1.00;;;;;;5067441;28;20280;-83
2023/02/27 08:41:26;;;;;;;7.05;4.97;;;1.40;1.00;;;;;;5067176;28;20237;-82
2023/02/27 08:43:53;;;;;;;6.68;5.20;;;1.40;1.00;;;;;;5069773;28;20234;-81
2023/02/27 08:46:20;;;;;;;6.43;5.70;;;1.40;99.90;;;;;;5073515;28;20262;-82
2023/02/27 08:48:46;;;;;;;8.25;4.43;;;1.40;1.00;;;;;;5074726;28;20207;-82
2023/02/27 08:51:15;;;;;;;11.15;5.57;;;1.40;1.00;;;;;;5074597;28;20251;-82
2023/02/27 08:53:42;;;;;;;7.45;5.13;;;1.40;99.90;;;;;;5068533;28;20239;-82
2023/02/27 08:56:09;;;;;;;6.85;4.22;;;1.50;1.00;;;;;;5063258;28;20267;-82
2023/02/27 08:58:36;;;;;;;5.35;4.70;;;1.40;99.90;;;;;;5075711;28;20274;-82
2023/02/27 09:01:03;;;;;;;4.72;4.22;;;1.70;99.90;;;;;;5077071;28;20238;-83
2023/02/27 09:03:30;;;;;;;6.57;5.32;;;1.90;99.90;;;;;;5073151;28;20242;-83
2023/02/27 09:05:57;;;;;;;7.53;5.30;;;1.80;1.00;;;;;;5071769;28;20249;-83
2023/02/27 09:08:25;;;;;;;6.28;3.85;;;1.60;91.20;;;;;;5068188;28;20568;-82
2023/02/27 09:10:56;;;;;;;5.13;3.97;;;1.40;99.90;;;;;;5074232;28;20231;-82
2023/02/27 09:13:23;;;;;;;6.95;4.78;;;1.70;1.00;;;;;;5072700;28;20195;-83
2023/02/27 09:15:50;;;;;;;4.55;4.20;;;1.80;99.90;;;;;;5071650;28;20241;-83
2023/02/27 09:18:17;;;;;;;6.75;4.40;;;1.60;1.00;;;;;;5076697;28;20203;-82
2023/02/27 09:20:44;;;;;;;7.68;4.57;;;1.60;1.30;;;;;;5075119;28;20226;-82
2023/02/27 09:23:11;;;;;;;14.40;5.72;;;1.70;1.00;;;;;;5073137;28;20204;-82
2023/02/27 09:25:39;;;;;;;5.57;4.55;;;1.70;1.00;;;;;;5071415;28;20207;-82
2023/02/27 09:28:06;;;;;;;4.97;3.85;;;1.80;1.00;;;;;;5069586;28;20271;-82
2023/02/27 09:30:33;;;;;;;5.88;4.65;;;1.90;1.00;;;;;;5068986;28;20223;-83
2023/02/27 09:33:00;;;;;;;4.95;3.53;;;2.30;1.00;;;;;;5067064;28;20242;-83
2023/02/27 09:35:27;;;;;;;8.10;3.85;;;2.80;1.00;;;;;;5070144;28;20203;-82
2023/02/27 09:37:56;;;;;;;6.05;4.10;;;2.50;99.90;;;;;;5065638;28;20224;-83
2023/02/27 09:40:26;;;;;;;4.05;3.63;;;2.30;99.90;;;;;;5064524;28;20604;-83
2023/02/27 09:42:59;;;;;;;7.07;3.70;;;2.30;99.90;;;;;;5066039;28;20223;-82
2023/02/27 09:45:28;;;;;;;5.93;4.25;;;2.70;99.90;;;;;;5066545;28;20222;-83
2023/02/27 09:47:59;;;;;;;8.95;4.38;;;2.80;99.90;;;;;;5069626;28;20206;-82
2023/02/27 09:50:37;;;;;;;8.63;3.78;;;2.70;99.90;;;;;;5074739;28;20225;-83
2023/02/27 09:53:06;;;;;;;7.00;4.00;;;3.10;99.90;;;;;;5075685;28;20203;-82
2023/02/27 09:55:38;;;;;;;5.03;3.00;;;3.00;28.90;;;;;;5067590;28;20207;-82
2023/02/27 09:58:16;;;;;;;7.57;6.30;;;2.60;1.00;;;;;;5067099;28;20215;-83
2023/02/27 10:00:48;;;;;;;4.07;3.25;;;2.60;34.60;;;;;;5067252;28;20250;-82
2023/02/27 10:03:32;;;;;;;8.18;4.82;;;2.80;29.80;;;;;;5067041;28;20261;-82
2023/02/27 10:06:16;;;;;;;5.18;3.22;;;2.80;17.30;;;;;;5066374;28;20188;-83
2023/02/27 10:08:51;;;;;;;9.00;3.33;;;3.00;1.00;;;;;;5066003;28;20211;-83
2023/02/27 10:11:27;;;;;;;9.60;3.15;;;2.70;99.90;;;;;;5064708;28;20242;-83
2023/02/27 10:14:02;;;;;;;4.95;3.42;;;3.00;1.00;;;;;;5065294;28;20270;-82
2023/02/27 10:16:32;;;;;;;7.30;3.10;;;3.80;99.90;;;;;;5065514;28;20188;-81
2023/02/27 10:19:01;;;;;;;7.00;3.70;;;3.70;1.00;;;;;;5065687;28;20223;-82
2023/02/27 10:21:33;;;;;;;4.40;4.00;;;3.80;1.00;;;;;;5064923;28;20249;-82
2023/02/27 10:24:09;;;;;;;6.95;3.35;;;3.50;1.00;;;;;;5072158;28;20211;-81
2023/02/27 10:26:39;;;;;;;5.00;3.15;;;3.30;1.00;;;;;;5072326;28;20249;-82
2023/02/27 10:29:17;;;;;;;4.93;2.55;;;3.40;1.00;;;;;;5072075;28;20211;-82
2023/02/27 10:31:46;;;;;;;5.32;3.10;;;3.80;1.00;;;;;;5074337;28;20282;-81
2023/02/27 10:34:15;;;;;;;3.53;2.90;;;3.20;43.10;;;;;;5077045;28;20263;-82
2023/02/27 10:36:42;;;;;;;4.68;3.10;;;3.50;1.00;;;;;;5075118;28;20283;-82
2023/02/27 10:39:14;;;;;;;4.05;2.72;;;3.40;1.00;;;;;;5065016;28;20708;-82
2023/02/27 10:41:42;;;;;;;2.50;2.30;;;3.50;1.00;;;;;;5069669;28;20212;-82
2023/02/27 10:44:14;;;;;;;2.97;2.33;;;3.50;1.00;;;;;;5072093;28;20230;-82
2023/02/27 10:46:42;;;;;;;3.75;2.80;;;3.30;1.00;;;;;;5073244;28;20248;-82
2023/02/27 10:49:15;;;;;;;9.77;4.22;;;3.40;1.00;;;;;;5068456;28;20256;-82
2023/02/27 10:51:43;;;;;;;2.20;1.80;;;3.60;1.00;;;;;;5065124;28;20251;-82
2023/02/27 10:54:25;;;;;;;7.13;2.35;;;3.80;1.00;;;;;;5064656;28;20203;-82
2023/02/27 10:56:55;;;;;;;2.40;2.20;;;4.20;1.00;;;;;;5076989;28;20641;-81
2023/02/27 10:59:26;;;;;;;2.88;2.22;;;4.40;1.00;;;;;;5079844;28;20226;-81
2023/02/27 11:01:55;;;;;;;2.63;2.05;;;4.20;1.00;;;;;;5077103;28;20250;-81
2023/02/27 11:04:34;;;;;;;3.42;2.08;;;4.50;1.00;;;;;;5063477;28;20242;-82
2023/02/27 11:07:07;;;;;;;3.20;2.65;;;4.40;1.00;;;;;;5062766;28;20230;-82
2023/02/27 11:09:35;;;;;;;3.47;2.20;;;4.50;1.00;;;;;;5062803;28;20200;-82
2023/02/27 11:12:18;;;;;;;4.72;2.65;;;4.40;1.00;;;;;;5062746;28;20284;-82
2023/02/27 11:14:52;;;;;;;1.30;1.00;;;4.20;1.00;;;;;;5071761;28;20196;-83
2023/02/27 11:17:24;;;;;;;1.42;1.25;;;3.90;1.00;;;;;;5077572;28;20230;-82
2023/02/27 11:19:51;;;;;;;1.23;1.13;;;3.80;1.00;;;;;;5064262;28;20219;-83
2023/02/27 11:22:19;;;;;;;1.80;1.60;;;4.20;1.00;;;;;;5065554;28;20228;-83
2023/02/27 11:24:47;;;;;;;2.10;1.42;;;4.20;1.00;;;;;;5060087;28;20558;-83
2023/02/27 11:27:25;;;;;;;4.82;2.83;;;4.30;1.00;;;;;;5060131;28;20276;-83
2023/02/27 11:29:59;;;;;;;2.40;1.83;;;4.40;1.00;;;;;;5060434;28;20295;-83
2023/02/27 11:32:31;;;;;;;1.80;1.50;;;4.30;1.00;;;;;;5062458;28;20558;-82
2023/02/27 11:34:58;;;;;;;2.85;1.40;;;4.20;1.00;;;;;;5061932;28;20188;-84
2023/02/27 11:37:30;;;;;;;3.55;1.70;;;4.50;1.00;;;;;;5063417;28;20231;-83
2023/02/27 11:40:05;;;;;;;10.35;1.60;;;4.40;1.00;;;;;;5061453;28;20571;-83
2023/02/27 11:42:35;;;;;;;3.53;1.63;;;4.30;1.00;;;;;;5062769;28;20187;-82
2023/02/27 11:45:08;;;;;;;1.33;1.20;;;4.10;1.00;;;;;;5063105;28;20204;-82
2023/02/27 11:47:39;;;;;;;2.67;2.00;;;4.20;1.00;;;;;;5076533;28;20211;-83
2023/02/27 11:50:42;;;;;;;4.10;1.90;;;4.30;1.00;;;;;;5076424;28;20212;-82
2023/02/27 11:53:22;;;;;;;2.78;1.92;;;4.30;1.00;;;;;;5067501;28;20188;-84
2023/02/27 11:55:52;;;;;;;4.32;1.40;;;4.00;1.00;;;;;;5066051;28;20246;-83
2023/02/27 11:58:22;;;;;;;1.70;1.45;;;4.10;1.00;;;;;;5066772;28;20192;-82
2023/02/27 12:00:54;;;;;;;2.10;1.70;;;4.10;1.00;;;;;;5066084;28;20314;-82
2023/02/27 12:03:25;;;;;;;10.15;3.08;;;4.10;1.00;;;;;;5065960;28;20279;-83
2023/02/27 12:05:54;;;;;;;3.33;2.10;;;4.20;1.00;;;;;;5063257;28;20567;-82
2023/02/27 12:08:32;;;;;;;5.20;1.92;;;4.30;1.00;;;;;;5062635;28;20614;-83
2023/02/27 12:11:03;;;;;;;3.67;2.15;;;4.60;1.00;;;;;;5062638;28;20306;-83
2023/02/27 12:13:34;;;;;;;3.55;1.35;;;4.90;1.00;;;;;;5062671;28;20260;-82
2023/02/27 12:16:10;;;;;;;2.28;2.03;;;4.80;1.00;;;;;;5063105;28;20237;-83
2023/02/27 12:18:43;;;;;;;2.38;1.75;;;4.50;1.00;;;;;;5062758;28;20285;-82
2023/02/27 12:21:13;;;;;;;1.33;1.10;;;4.50;1.00;;;;;;5062702;28;20230;-82
2023/02/27 12:23:44;;;;;;;6.60;1.92;;;4.90;1.00;;;;;;5063082;28;20253;-83
2023/02/27 12:26:19;;;;;;;1.30;1.00;;;4.50;1.00;;;;;;5068475;28;20191;-82
2023/02/27 12:28:54;;;;;;;1.27;1.17;;;4.50;1.00;;;;;;5067335;28;20189;-83
2023/02/27 12:31:45;;;;;;;1.90;1.33;;;4.70;1.00;;;;;;5065863;28;20225;-82
2023/02/27 12:34:33;;;;;;;1.33;1.23;;;4.80;1.00;;;;;;5064138;28;20214;-83
2023/02/27 12:37:09;;;;;;;5.55;1.23;;;4.70;1.00;;;;;;5063588;28;20194;-82
2023/02/27 12:39:37;;;;;;;2.05;1.48;;;4.60;1.00;;;;;;5062336;28;20282;-82
2023/02/27 12:42:33;;;;;;;1.30;1.20;;;4.50;1.00;;;;;;5062319;28;20231;-83
2023/02/27 12:45:28;;;;;;;4.35;1.25;;;5.10;1.00;;;;;;5062737;28;20639;-83
2023/02/27 12:48:12;;;;;;;2.35;1.27;;;5.20;1.00;;;;;;5062218;28;20710;-84
2023/02/27 12:50:49;;;;;;;2.72;1.77;;;5.30;1.00;;;;;;5063469;28;20226;-83
2023/02/27 12:53:42;;;;;;;1.88;1.67;;;5.20;1.00;;;;;;5065699;28;20277;-82
2023/02/27 12:56:15;;;;;;;1.67;1.20;;;4.90;1.00;;;;;;5066518;28;20198;-83
2023/02/27 12:58:52;;;;;;;1.52;1.20;;;4.60;1.00;;;;;;5066882;28;20184;-82
2023/02/27 13:01:35;;;;;;;2.67;1.38;;;4.80;1.00;;;;;;5066133;28;20227;-83
2023/02/27 13:04:10;;;;;;;1.90;1.60;;;4.70;1.00;;;;;;5066316;28;20192;-82
2023/02/27 13:06:47;;;;;;;1.80;1.70;;;4.80;1.00;;;;;;5066930;28;20306;-83
2023/02/27 13:09:28;;;;;;;1.98;1.33;;;4.60;1.00;;;;;;5066969;28;20196;-83
2023/02/27 13:12:03;;;;;;;1.88;1.27;;;4.40;1.00;;;;;;5066940;28;20319;-82
2023/02/27 13:14:41;;;;;;;1.30;1.20;;;4.40;1.00;;;;;;5067096;28;20797;-84
2023/02/27 13:17:17;;;;;;;4.85;2.33;;;4.70;1.00;;;;;;5066612;28;20217;-83
2023/02/27 13:19:50;;;;;;;1.23;1.00;;;4.50;1.00;;;;;;5065754;28;20208;-82
2023/02/27 13:22:26;;;;;;;3.45;1.65;;;4.50;99.90;;;;;;5067489;28;20220;-83